• Join FlightAware (Why Join?)
  • Login
  • US Flag 
07:47PM EDT


 

Airport Tracker/Info


-or-


 

Live Flight TrackerFlight Track Log ✈ CPT8773 ✈ 12-Jun-2013 ✈ KCPR - KCOD

Flight Track Log - Related Links

Times and Time Zones

All times are in EDT time to prevent confusion due to time zone crossing. See the CPT8773 flight status page for this flight to view local times or setup timezone preferences in your user account.

Time Position Orientation Groundspeed Altitude Reporting Facility
EDT Latitude Longitude Course Direction KTS MPH feet Rate Location/Type
09:43AM 42.9494 -106.5506 308° West 103 119 7,100  Level Salt Lake Center
09:44AM 42.9661 -106.5756 312° West 101 116 7,500 420 Climbing Denver Center
09:45AM 42.9928 -106.5969 330° Northwest 97 112 8,000 420 Climbing Denver Center
09:46AM 43.0888 -106.2762 308° West  Level FlightAware Approximate
09:46AM 43.0172 -106.6144 332° Northwest 99 114 8,400  Level Denver Center
09:47AM 43.1130 -106.3186 308° West  Level FlightAware Approximate
09:47AM 43.0461 -106.6383 329° Northwest 104 120 8,900  Level Denver Center
09:48AM 43.1372 -106.3610 308° West  Level FlightAware Approximate
09:48AM 43.0686 -106.6589 326° Northwest 104 120 9,200  Level Denver Center
09:49AM 43.0917 -106.6792 327° Northwest 104 120 9,600 300 Climbing Denver Center
09:50AM 43.1206 -106.7022 330° Northwest 107 123 9,900 240 Climbing Denver Center
09:51AM 43.1481 -106.7231 331° Northwest 115 132 10,100 240 Climbing Denver Center
09:52AM 43.1806 -106.7469 332° Northwest 119 137 10,400 240 Climbing Denver Center
09:53AM 43.2089 -106.7667 333° Northwest 120 138 10,700 240 Climbing Denver Center
09:54AM 43.2378 -106.7881 332° Northwest 122 140 11,000 240 Climbing Denver Center
09:55AM 43.2706 -106.8133 331° Northwest 123 142 11,300 240 Climbing Denver Center
09:56AM 43.2994 -106.8317 335° Northwest 121 139 11,600 240 Climbing Denver Center
09:57AM 43.3347 -106.8542 335° Northwest 123 142 11,900 180 Climbing Denver Center
09:58AM 43.3647 -106.8736 335° Northwest 125 144 12,000  Climbing Denver Center
09:59AM 43.3992 -106.8956 335° Northwest 133 153 12,000  Level Denver Center
10:00AM 43.4325 -106.9203 332° Northwest 141 162 12,000  Level Denver Center
10:01AM 43.4567 -106.9697 304° West 137 158 12,000  Level Salt Lake Center
10:02AM 43.4808 -107.0217 303° West 142 163 12,000  Level Salt Lake Center
10:03AM 43.5028 -107.0675 303° West 148 170 12,000  Level Salt Lake Center
10:04AM 43.5258 -107.1092 307° West 144 166 12,000  Level Salt Lake Center
10:05AM 43.5486 -107.1497 308° West 142 163 12,000  Level Denver Center
10:06AM 43.5731 -107.1911 309° West 144 166 12,000  Level Denver Center
10:07AM 43.6011 -107.2428 307° West 150 173 12,000  Level Denver Center
10:08AM 43.6281 -107.2944 306° West 150 173 12,000  Level Denver Center
10:09AM 43.6511 -107.3397 305° West 151 174 12,000  Level Denver Center
10:10AM 43.6772 -107.3936 304° West 151 174 12,000  Level Salt Lake Center
10:11AM 43.7014 -107.4386 307° West 152 175 12,000  Level Salt Lake Center
10:12AM 43.7297 -107.4900 307° West 151 174 12,000  Level Salt Lake Center
10:13AM 43.7519 -107.5347 305° West 150 173 12,000  Level Salt Lake Center
10:14AM 43.7747 -107.5792 305° West 148 170 12,000  Level Salt Lake Center
10:15AM 43.8025 -107.6314 306° West 150 173 12,000  Level Salt Lake Center
10:17AM 43.8275 -107.6775 307° West 152 175 12,000  Level Salt Lake Center
10:18AM 43.8567 -107.7322 306° West 156 180 12,000  Level Salt Lake Center
10:19AM 43.8817 -107.7797 306° West 157 181 12,000  Level Salt Lake Center
10:20AM 43.9075 -107.8275 307° West 159 183 12,000  Level Salt Lake Center
10:21AM 43.9383 -107.8839 307° West 162 186 12,000  Level Salt Lake Center
10:22AM 43.9633 -107.9336 305° West 163 188 12,000  Level Salt Lake Center
10:23AM 43.9919 -107.9897 305° West 162 186 12,000  Level Salt Lake Center
10:24AM 44.0164 -108.0381 305° West 160 184 12,000  Level Salt Lake Center
10:25AM 44.0411 -108.0864 305° West 160 184 12,000  Level Salt Lake Center
10:26AM 44.0700 -108.1408 306° West 159 183 12,000  Level Salt Lake Center
10:27AM 44.0939 -108.1872 306° West 156 180 12,000  Level Salt Lake Center
10:28AM 44.1231 -108.2414 307° West 156 180 12,000  Level Salt Lake Center
10:29AM 44.1469 -108.2886 305° West 156 180 12,000  Level Salt Lake Center
10:30AM 44.1736 -108.3439 304° West 155 178 12,000 -120 Level Salt Lake Center
10:31AM 44.1997 -108.3928 307° West 158 182 11,800 -180 Descending Salt Lake Center
10:32AM 44.2272 -108.4444 307° West 164 189 11,700 -180 Descending Salt Lake Center
10:33AM 44.2581 -108.5058 305° West 170 196 11,500 -300 Descending Salt Lake Center
10:34AM 44.2850 -108.5589 305° West 172 198 11,100 -480 Descending Salt Lake Center
10:35AM 44.3194 -108.6242 306° West 179 206 10,600 -480 Descending Salt Lake Center
10:36AM 44.3478 -108.6811 305° West 183 211 10,200 -360 Descending Salt Lake Center
10:37AM 44.3794 -108.7425 306° West 184 212 9,900 -300 Descending Salt Lake Center